Time;durP1;ratioP1;P1;durP2;ratioP2;P2;SDS_P1;SDS_P2;PMS_P1;PMS_P2;Temp;Humidity;BMP_temperature;BMP_pressure;BME280_temperature;BME280_humidity;BME280_pressure;Samples;Min_cycle;Max_cycle;Signal;HPM_P1;HPM_P2
2021/07/18 00:02:13;;;;;;;8.02;3.03;;;19.40;82.50;;;;;;5066289;28;20062;-76
2021/07/18 00:04:39;;;;;;;5.82;3.00;;;19.40;82.50;;;;;;5081519;28;20472;-76
2021/07/18 00:07:05;;;;;;;7.63;2.90;;;19.40;82.60;;;;;;5085595;28;20050;-76
2021/07/18 00:09:30;;;;;;;7.75;2.85;;;19.40;82.60;;;;;;5055911;28;20025;-76
2021/07/18 00:11:56;;;;;;;5.95;2.60;;;19.40;82.70;;;;;;5080733;28;20029;-76
2021/07/18 00:14:22;;;;;;;3.35;2.63;;;19.40;82.80;;;;;;5092679;28;20036;-76
2021/07/18 00:16:47;;;;;;;4.60;3.25;;;19.40;82.80;;;;;;5071194;28;20032;-76
2021/07/18 00:19:13;;;;;;;6.95;3.33;;;19.40;82.80;;;;;;5086574;28;20477;-76
2021/07/18 00:21:39;;;;;;;5.75;3.38;;;19.30;82.90;;;;;;5081983;28;20031;-76
2021/07/18 00:24:05;;;;;;;9.65;3.38;;;19.30;83.00;;;;;;5073535;28;20470;-76
2021/07/18 00:26:30;;;;;;;9.25;3.90;;;19.30;83.00;;;;;;5084479;28;20107;-76
2021/07/18 00:28:56;;;;;;;6.93;3.50;;;19.30;83.00;;;;;;5080506;28;20127;-76
2021/07/18 00:31:22;;;;;;;5.35;3.28;;;19.20;83.10;;;;;;5075696;28;20076;-76
2021/07/18 00:33:47;;;;;;;8.93;3.30;;;19.20;83.30;;;;;;5074436;28;20115;-76
2021/07/18 00:36:13;;;;;;;5.18;3.72;;;19.20;83.40;;;;;;5073550;28;20089;-76
2021/07/18 00:38:38;;;;;;;7.80;3.95;;;19.10;83.50;;;;;;5073345;28;20025;-77
2021/07/18 00:41:04;;;;;;;5.40;3.70;;;19.10;83.70;;;;;;5074349;28;20033;-76
2021/07/18 00:43:30;;;;;;;7.53;3.50;;;19.10;83.80;;;;;;5072072;28;20054;-76
2021/07/18 00:45:57;;;;;;;6.70;3.80;;;19.10;83.90;;;;;;5072060;28;20031;-76
2021/07/18 00:48:26;;;;;;;7.18;3.15;;;19.10;84.10;;;;;;5074390;28;20473;-76
2021/07/18 00:50:52;;;;;;;6.20;3.85;;;19.00;84.20;;;;;;5078921;28;20063;-76
2021/07/18 00:53:17;;;;;;;7.88;4.05;;;19.00;84.20;;;;;;5093346;28;20381;-76
2021/07/18 00:55:44;;;;;;;7.03;3.85;;;18.90;84.30;;;;;;5086638;28;20032;-76
2021/07/18 00:58:11;;;;;;;4.40;3.70;;;18.90;84.40;;;;;;5073252;28;20033;-76
2021/07/18 01:00:37;;;;;;;6.70;3.90;;;18.90;84.60;;;;;;5074749;28;20096;-76
2021/07/18 01:03:03;;;;;;;6.97;4.30;;;18.90;84.50;;;;;;5084963;28;20120;-76
2021/07/18 01:05:29;;;;;;;6.78;3.97;;;18.90;84.70;;;;;;5088447;28;20029;-76
2021/07/18 01:07:55;;;;;;;6.35;4.22;;;18.80;84.80;;;;;;5072764;28;20025;-76
2021/07/18 01:10:20;;;;;;;7.43;3.95;;;18.80;84.90;;;;;;5075597;28;20493;-76
2021/07/18 01:12:46;;;;;;;6.28;3.72;;;18.80;84.90;;;;;;5092001;28;20103;-76
2021/07/18 01:15:13;;;;;;;4.65;3.50;;;18.80;85.00;;;;;;5091306;28;20028;-76
2021/07/18 01:17:39;;;;;;;7.93;4.22;;;18.70;85.10;;;;;;5073486;28;20408;-76
2021/07/18 01:20:08;;;;;;;7.38;3.95;;;18.70;85.10;;;;;;5072394;28;20028;-76
2021/07/18 01:22:34;;;;;;;4.82;4.30;;;18.70;85.30;;;;;;5072739;28;20107;-76
2021/07/18 01:25:03;;;;;;;6.15;3.97;;;18.70;85.30;;;;;;5073027;28;20519;-76
2021/07/18 01:27:29;;;;;;;8.68;4.20;;;18.70;85.40;;;;;;5072381;28;20025;-76
2021/07/18 01:29:56;;;;;;;7.43;3.78;;;18.60;85.40;;;;;;5072879;28;20052;-76
2021/07/18 01:32:22;;;;;;;7.47;4.45;;;18.60;85.50;;;;;;5068155;28;20040;-76
2021/07/18 01:34:49;;;;;;;6.18;4.07;;;18.60;85.60;;;;;;5074932;28;20493;-76
2021/07/18 01:37:15;;;;;;;7.07;4.53;;;18.60;85.70;;;;;;5091795;28;20372;-76
2021/07/18 01:39:41;;;;;;;6.55;4.20;;;18.60;85.80;;;;;;5091580;28;20031;-76
2021/07/18 01:42:06;;;;;;;7.28;4.25;;;18.50;85.80;;;;;;5091891;28;20036;-76
2021/07/18 01:44:32;;;;;;;7.28;4.82;;;18.50;85.90;;;;;;5092839;28;20024;-76
2021/07/18 01:46:58;;;;;;;9.70;4.72;;;18.50;86.20;;;;;;5083537;28;20052;-76
2021/07/18 01:49:24;;;;;;;6.57;3.85;;;18.50;86.40;;;;;;5072561;28;20025;-76
2021/07/18 01:51:49;;;;;;;6.25;4.60;;;18.50;86.40;;;;;;5087184;28;20040;-76
2021/07/18 01:54:16;;;;;;;7.97;4.28;;;18.40;86.50;;;;;;5090990;28;20035;-76
2021/07/18 01:56:42;;;;;;;7.40;4.28;;;18.50;86.60;;;;;;5089868;28;20032;-76
2021/07/18 01:59:09;;;;;;;12.50;4.95;;;18.40;86.60;;;;;;5078047;28;20405;-76
2021/07/18 02:01:35;;;;;;;8.98;4.53;;;18.50;86.70;;;;;;5072546;28;20032;-76
2021/07/18 02:04:02;;;;;;;7.97;4.70;;;18.40;86.80;;;;;;5072409;28;20067;-76
2021/07/18 02:06:29;;;;;;;9.80;5.00;;;18.40;86.90;;;;;;5080520;28;20099;-76
2021/07/18 02:08:57;;;;;;;6.72;5.00;;;18.40;87.50;;;;;;5072530;28;20541;-76
2021/07/18 02:11:23;;;;;;;9.80;5.20;;;18.30;87.00;;;;;;5082343;28;20179;-76
2021/07/18 02:13:54;;;;;;;9.27;5.10;;;18.40;87.10;;;;;;5091401;28;20039;-76
2021/07/18 02:16:21;;;;;;;7.32;4.80;;;18.30;87.10;;;;;;5091501;28;20039;-76
2021/07/18 02:18:48;;;;;;;7.47;5.45;;;18.30;87.10;;;;;;5096143;28;20431;-76
2021/07/18 02:21:15;;;;;;;6.75;5.63;;;18.30;87.40;;;;;;5088022;28;20033;-76
2021/07/18 02:23:41;;;;;;;7.78;5.28;;;18.20;87.50;;;;;;5075753;28;20048;-76
2021/07/18 02:26:07;;;;;;;9.65;5.70;;;18.30;87.60;;;;;;5086084;28;20036;-76
2021/07/18 02:28:33;;;;;;;8.13;5.28;;;18.30;87.70;;;;;;5096103;28;20025;-76
2021/07/18 02:30:58;;;;;;;12.90;5.82;;;18.20;87.60;;;;;;5085072;28;20067;-76
2021/07/18 02:33:24;;;;;;;6.47;4.88;;;18.20;87.60;;;;;;5079012;28;20032;-76
2021/07/18 02:35:50;;;;;;;7.15;5.53;;;18.20;87.60;;;;;;5094747;28;20735;-76
2021/07/18 02:38:17;;;;;;;11.85;6.57;;;18.20;87.70;;;;;;5088179;28;20036;-76
2021/07/18 02:40:43;;;;;;;8.45;5.38;;;18.10;87.70;;;;;;5085947;28;20036;-76
2021/07/18 02:43:08;;;;;;;9.77;5.65;;;18.10;87.70;;;;;;5085943;28;20575;-76
2021/07/18 02:45:34;;;;;;;10.63;5.28;;;18.10;87.80;;;;;;5075451;28;20049;-76
2021/07/18 02:48:00;;;;;;;9.73;6.00;;;18.10;88.00;;;;;;5075202;28;20024;-76
2021/07/18 02:50:28;;;;;;;12.05;5.93;;;18.00;88.30;;;;;;5091573;28;20035;-76
2021/07/18 02:52:54;;;;;;;10.40;6.03;;;18.00;88.40;;;;;;5075428;28;20542;-76
2021/07/18 02:55:20;;;;;;;13.00;5.75;;;18.00;88.30;;;;;;5091926;28;20146;-76
2021/07/18 02:57:47;;;;;;;10.88;6.20;;;17.90;88.30;;;;;;5078547;28;20052;-76
2021/07/18 03:00:15;;;;;;;10.00;6.57;;;17.90;88.30;;;;;;5074970;28;20495;-76
2021/07/18 03:02:41;;;;;;;9.77;6.53;;;17.90;88.30;;;;;;5055043;28;20033;-76
2021/07/18 03:05:10;;;;;;;8.80;6.70;;;17.90;88.30;;;;;;5073595;28;20036;-76
2021/07/18 03:07:35;;;;;;;14.63;7.00;;;17.90;88.50;;;;;;5078891;28;20028;-76
2021/07/18 03:10:01;;;;;;;9.43;7.13;;;17.80;88.50;;;;;;5076509;28;20036;-76
2021/07/18 03:12:28;;;;;;;13.63;11.07;;;17.80;88.50;;;;;;5079798;28;20123;-76
2021/07/18 03:14:54;;;;;;;16.23;13.07;;;17.80;88.50;;;;;;5074206;28;20145;-76
2021/07/18 03:17:19;;;;;;;13.85;10.93;;;17.80;88.60;;;;;;5082602;28;20060;-76
2021/07/18 03:19:45;;;;;;;16.95;11.80;;;17.70;88.50;;;;;;5082533;28;20032;-76
2021/07/18 03:22:11;;;;;;;17.08;12.18;;;17.70;88.60;;;;;;5089833;28;20032;-76
2021/07/18 03:24:36;;;;;;;15.82;14.20;;;17.70;89.20;;;;;;5082504;28;20037;-76
2021/07/18 03:27:02;;;;;;;17.48;13.45;;;17.70;88.70;;;;;;5074263;28;20389;-76
2021/07/18 03:29:28;;;;;;;13.77;11.95;;;17.60;88.70;;;;;;5077164;28;20110;-76
2021/07/18 03:31:54;;;;;;;12.57;11.27;;;17.60;88.70;;;;;;5087021;28;20048;-76
2021/07/18 03:34:20;;;;;;;15.30;10.07;;;17.60;88.70;;;;;;5087223;28;20041;-76
2021/07/18 03:36:45;;;;;;;13.00;8.98;;;17.60;88.70;;;;;;5074503;28;20029;-76
2021/07/18 03:39:11;;;;;;;11.55;7.68;;;17.60;88.60;;;;;;5080531;28;20036;-76
2021/07/18 03:41:37;;;;;;;12.60;8.10;;;17.60;88.60;;;;;;5086092;28;20107;-76
2021/07/18 03:44:03;;;;;;;8.98;6.78;;;17.60;88.70;;;;;;5076241;28;20108;-76
2021/07/18 03:46:28;;;;;;;8.77;6.68;;;17.60;88.70;;;;;;5073117;28;20111;-77
2021/07/18 03:48:54;;;;;;;15.20;6.70;;;17.60;88.80;;;;;;5074206;28;20029;-76
2021/07/18 03:51:19;;;;;;;8.20;5.47;;;17.50;88.70;;;;;;5078822;28;20063;-76
2021/07/18 03:53:45;;;;;;;10.32;6.60;;;17.60;88.80;;;;;;5084063;28;20166;-76
2021/07/18 03:56:11;;;;;;;11.15;6.00;;;17.50;88.80;;;;;;5077669;28;20099;-76
2021/07/18 03:58:37;;;;;;;12.45;6.80;;;17.50;88.90;;;;;;5086829;28;20024;-76
2021/07/18 04:01:09;;;;;;;9.60;6.75;;;17.50;88.90;;;;;;5075175;28;20040;-76
2021/07/18 04:03:35;;;;;;;11.82;6.82;;;17.50;89.00;;;;;;5072610;28;20028;-76
2021/07/18 04:06:03;;;;;;;12.02;7.25;;;17.50;89.20;;;;;;5074183;28;20024;-76
2021/07/18 04:08:28;;;;;;;11.43;6.53;;;17.60;89.40;;;;;;5073908;28;20503;-76
2021/07/18 04:10:54;;;;;;;10.32;6.93;;;17.60;89.40;;;;;;5065073;28;20040;-76
2021/07/18 04:13:20;;;;;;;14.40;7.93;;;17.60;89.40;;;;;;5093988;28;20038;-76
2021/07/18 04:15:45;;;;;;;23.10;9.43;;;17.70;90.10;;;;;;5091524;28;20046;-76
2021/07/18 04:18:11;;;;;;;29.40;11.52;;;17.70;89.60;;;;;;5079342;28;20043;-76
2021/07/18 04:20:38;;;;;;;40.17;15.43;;;17.70;89.70;;;;;;5073660;28;20032;-76
2021/07/18 04:23:04;;;;;;;65.22;20.58;;;17.80;89.90;;;;;;5073581;28;20021;-76
2021/07/18 04:25:30;;;;;;;77.38;23.98;;;17.80;90.00;;;;;;5073834;28;20052;-76
2021/07/18 04:27:56;;;;;;;89.85;28.23;;;17.90;90.10;;;;;;5072366;28;20044;-76
2021/07/18 04:30:21;;;;;;;83.43;25.15;;;17.90;90.20;;;;;;5075760;28;20044;-76
2021/07/18 04:32:48;;;;;;;89.50;27.33;;;18.00;90.20;;;;;;5073453;28;20032;-76
2021/07/18 04:35:14;;;;;;;116.55;31.65;;;18.00;90.20;;;;;;5077926;28;20063;-76
2021/07/18 04:37:41;;;;;;;145.85;40.10;;;18.10;90.20;;;;;;5092395;28;20024;-76
2021/07/18 04:40:08;;;;;;;107.65;28.65;;;18.10;90.20;;;;;;5073699;28;20038;-76
2021/07/18 04:42:33;;;;;;;115.97;30.45;;;18.10;90.30;;;;;;5092098;28;20028;-76
2021/07/18 04:45:00;;;;;;;86.65;25.88;;;18.10;90.30;;;;;;5091853;28;20039;-76
2021/07/18 04:47:25;;;;;;;114.88;32.42;;;18.20;90.40;;;;;;5087283;28;20640;-76
2021/07/18 04:49:52;;;;;;;105.32;29.17;;;18.20;90.40;;;;;;5073721;28;20086;-76
2021/07/18 04:52:18;;;;;;;73.97;23.83;;;18.20;90.40;;;;;;5072248;28;20032;-76
2021/07/18 04:54:44;;;;;;;43.00;15.88;;;18.20;90.40;;;;;;5087501;28;20043;-76
2021/07/18 04:57:10;;;;;;;50.35;18.00;;;18.30;90.40;;;;;;5091190;28;20094;-76
2021/07/18 04:59:37;;;;;;;62.83;21.65;;;18.30;90.40;;;;;;5072684;28;20054;-76
2021/07/18 05:02:03;;;;;;;99.00;30.52;;;18.30;90.40;;;;;;5073135;28;20480;-76
2021/07/18 05:04:28;;;;;;;152.77;44.50;;;18.30;90.40;;;;;;5073011;28;20036;-76
2021/07/18 05:06:54;;;;;;;203.43;61.42;;;18.40;90.30;;;;;;5071707;28;20067;-76
2021/07/18 05:09:20;;;;;;;178.30;52.78;;;18.50;90.30;;;;;;5073122;28;20041;-76
2021/07/18 05:11:45;;;;;;;219.70;67.82;;;18.50;90.20;;;;;;5071694;28;20017;-76
2021/07/18 05:14:11;;;;;;;180.82;61.47;;;18.60;90.20;;;;;;5073077;28;20061;-76
2021/07/18 05:16:36;;;;;;;209.15;72.75;;;18.50;90.20;;;;;;5071377;28;20033;-76
2021/07/18 05:19:02;;;;;;;181.63;66.25;;;18.60;90.20;;;;;;5087300;28;20039;-76
2021/07/18 05:21:28;;;;;;;205.65;71.90;;;18.70;90.20;;;;;;5093042;28;20065;-76
2021/07/18 05:23:53;;;;;;;151.48;51.30;;;18.70;90.20;;;;;;5076616;28;20037;-76
2021/07/18 05:26:19;;;;;;;123.25;44.15;;;18.80;90.10;;;;;;5073690;28;20032;-76
2021/07/18 05:28:44;;;;;;;104.53;38.53;;;18.80;89.90;;;;;;5087237;28;20024;-76
2021/07/18 05:31:10;;;;;;;58.05;23.52;;;18.90;89.80;;;;;;5078003;28;20378;-76
2021/07/18 05:33:36;;;;;;;72.95;26.27;;;18.90;89.70;;;;;;5072574;28;20043;-76
2021/07/18 05:36:01;;;;;;;27.98;15.20;;;18.90;89.70;;;;;;5072693;28;20037;-76
2021/07/18 05:38:27;;;;;;;24.27;13.10;;;18.90;89.60;;;;;;5071712;28;20032;-76
2021/07/18 05:40:53;;;;;;;26.83;15.02;;;18.80;89.60;;;;;;5072503;28;20034;-76
2021/07/18 05:43:18;;;;;;;31.25;17.67;;;18.80;89.70;;;;;;5083352;28;20032;-76
2021/07/18 05:45:44;;;;;;;28.75;18.30;;;18.70;89.80;;;;;;5092677;28;20107;-76
2021/07/18 05:48:10;;;;;;;22.67;14.23;;;18.70;89.90;;;;;;5072473;28;20044;-76
2021/07/18 05:50:35;;;;;;;16.67;11.85;;;18.70;90.00;;;;;;5071645;28;20024;-76
2021/07/18 05:53:01;;;;;;;15.70;11.38;;;18.70;90.10;;;;;;5084607;28;20024;-76
2021/07/18 05:55:27;;;;;;;16.35;11.27;;;18.60;90.10;;;;;;5089283;28;20506;-76
2021/07/18 05:57:53;;;;;;;15.75;10.35;;;18.60;90.10;;;;;;5073711;28;20046;-76
2021/07/18 06:00:19;;;;;;;14.65;10.32;;;18.70;90.20;;;;;;5094925;28;20028;-76
2021/07/18 06:02:45;;;;;;;15.07;9.63;;;18.70;90.20;;;;;;5095143;28;20421;-76
2021/07/18 06:05:11;;;;;;;12.40;10.40;;;18.80;90.20;;;;;;5080725;28;20393;-76
2021/07/18 06:07:38;;;;;;;18.42;16.48;;;18.90;90.10;;;;;;5074958;28;20044;-76
2021/07/18 06:10:08;;;;;;;22.38;19.90;;;18.90;89.90;;;;;;5079176;28;20020;-76
2021/07/18 06:12:34;;;;;;;25.80;23.02;;;19.00;89.70;;;;;;5093332;28;20032;-76
2021/07/18 06:15:00;;;;;;;49.63;40.03;;;19.10;89.60;;;;;;5093320;28;20069;-76
2021/07/18 06:17:27;;;;;;;39.65;33.33;;;19.20;89.50;;;;;;5074740;28;20428;-76
2021/07/18 06:19:52;;;;;;;22.63;16.98;;;19.30;89.30;;;;;;5078942;28;20110;-76
2021/07/18 06:22:19;;;;;;;20.65;14.85;;;19.30;88.90;;;;;;5095966;28;20561;-76
2021/07/18 06:24:45;;;;;;;13.80;10.32;;;19.40;88.70;;;;;;5093322;28;20145;-76
2021/07/18 06:27:11;;;;;;;10.38;9.38;;;19.40;88.50;;;;;;5078496;28;20725;-76
2021/07/18 06:29:36;;;;;;;13.52;9.57;;;19.40;88.50;;;;;;5077887;28;20036;-76
2021/07/18 06:32:04;;;;;;;13.27;9.65;;;19.40;88.30;;;;;;5075651;28;20053;-76
2021/07/18 06:34:30;;;;;;;12.40;10.20;;;19.50;88.20;;;;;;5076016;28;20428;-76
2021/07/18 06:36:58;;;;;;;17.40;15.38;;;19.60;88.10;;;;;;5092535;28;20032;-76
2021/07/18 06:39:23;;;;;;;40.03;31.63;;;19.70;87.90;;;;;;5086713;28;20488;-76
2021/07/18 06:41:49;;;;;;;39.65;32.28;;;19.70;87.70;;;;;;5083822;28;20032;-76
2021/07/18 06:44:15;;;;;;;37.30;33.42;;;19.90;87.40;;;;;;5095903;28;20111;-76
2021/07/18 06:46:41;;;;;;;11.20;9.18;;;20.00;86.90;;;;;;5080333;28;20060;-76
2021/07/18 06:49:07;;;;;;;10.85;7.80;;;20.10;86.20;;;;;;5074018;28;20025;-76
2021/07/18 06:51:33;;;;;;;11.40;8.85;;;20.20;85.70;;;;;;5080363;28;20393;-76
2021/07/18 06:53:59;;;;;;;11.07;9.82;;;20.30;85.80;;;;;;5092631;28;20081;-76
2021/07/18 06:56:24;;;;;;;11.50;10.30;;;20.30;84.90;;;;;;5089239;28;20062;-76
2021/07/18 06:58:50;;;;;;;12.45;11.10;;;20.40;84.50;;;;;;5095620;28;20028;-76
2021/07/18 07:01:16;;;;;;;12.27;10.70;;;20.50;83.80;;;;;;5083698;28;20063;-76
2021/07/18 07:03:41;;;;;;;9.07;8.18;;;20.60;83.20;;;;;;5085544;28;20036;-76
2021/07/18 07:06:07;;;;;;;9.45;8.45;;;20.70;82.80;;;;;;5068495;28;20035;-76
2021/07/18 07:08:32;;;;;;;9.27;7.28;;;20.80;82.40;;;;;;5091484;28;20036;-76
2021/07/18 07:10:58;;;;;;;8.65;7.65;;;21.00;81.90;;;;;;5077819;28;20036;-76
2021/07/18 07:13:24;;;;;;;9.05;6.25;;;21.10;81.00;;;;;;5085826;28;20028;-76
2021/07/18 07:15:49;;;;;;;16.15;13.00;;;21.20;80.80;;;;;;5073019;28;20032;-76
2021/07/18 07:18:15;;;;;;;11.05;9.93;;;21.40;80.60;;;;;;5074824;28;20044;-76
2021/07/18 07:20:41;;;;;;;15.10;11.65;;;21.50;80.00;;;;;;5081269;28;20043;-76
2021/07/18 07:23:06;;;;;;;54.92;47.72;;;21.60;79.90;;;;;;5074462;28;20052;-77
2021/07/18 07:25:32;;;;;;;40.22;33.63;;;21.70;79.40;;;;;;5074757;28;20033;-76
2021/07/18 07:27:57;;;;;;;14.32;11.13;;;21.90;78.90;;;;;;5076753;28;20393;-76
2021/07/18 07:30:23;;;;;;;14.90;10.55;;;22.00;77.80;;;;;;5080385;28;20053;-76
2021/07/18 07:32:49;;;;;;;15.85;14.13;;;22.10;77.20;;;;;;5074496;28;20097;-77
2021/07/18 07:35:15;;;;;;;11.93;10.50;;;22.10;77.00;;;;;;5075289;28;20085;-76
2021/07/18 07:37:42;;;;;;;10.40;6.05;;;22.20;76.60;;;;;;5075823;28;20093;-77
2021/07/18 07:40:10;;;;;;;8.40;4.65;;;22.20;76.10;;;;;;5081793;28;20043;-77
2021/07/18 07:42:35;;;;;;;10.90;7.10;;;22.40;76.00;;;;;;5082066;28;20036;-77
2021/07/18 07:45:01;;;;;;;10.20;8.68;;;22.40;75.30;;;;;;5081098;28;20032;-77
2021/07/18 07:47:27;;;;;;;8.75;7.40;;;22.50;74.40;;;;;;5062005;28;20067;-77
2021/07/18 07:49:53;;;;;;;7.70;6.75;;;22.60;74.20;;;;;;5074685;28;20048;-77
2021/07/18 07:52:18;;;;;;;11.18;8.90;;;22.70;73.50;;;;;;5073793;28;20377;-77
2021/07/18 07:54:44;;;;;;;11.45;8.02;;;22.80;73.30;;;;;;5084975;28;20040;-77
2021/07/18 07:57:10;;;;;;;20.23;12.27;;;22.90;72.50;;;;;;5089815;28;20028;-77
2021/07/18 07:59:36;;;;;;;13.10;10.27;;;23.00;72.20;;;;;;5075739;28;20033;-77
2021/07/18 08:02:01;;;;;;;12.80;10.18;;;23.10;71.80;;;;;;5091368;28;20036;-76
2021/07/18 08:04:28;;;;;;;11.82;9.02;;;23.20;71.50;;;;;;5084949;28;20021;-76
2021/07/18 08:06:54;;;;;;;11.07;8.45;;;23.20;71.20;;;;;;5072733;28;20029;-77
2021/07/18 08:09:20;;;;;;;13.73;10.57;;;23.30;70.70;;;;;;5073516;28;20170;-77
2021/07/18 08:11:46;;;;;;;9.82;5.05;;;23.40;70.30;;;;;;5090040;28;20020;-77
2021/07/18 08:14:11;;;;;;;3.95;2.90;;;23.50;69.80;;;;;;5074374;28;20021;-77
2021/07/18 08:16:37;;;;;;;5.85;4.55;;;23.60;69.90;;;;;;5089132;28;20028;-77
2021/07/18 08:19:04;;;;;;;4.13;3.08;;;23.70;70.00;;;;;;5080845;28;20040;-77
2021/07/18 08:21:29;;;;;;;3.40;2.85;;;23.80;70.20;;;;;;5078899;28;20487;-77
2021/07/18 08:23:55;;;;;;;6.50;3.60;;;23.90;70.30;;;;;;5093830;28;20115;-77
2021/07/18 08:26:21;;;;;;;4.90;4.10;;;24.00;69.20;;;;;;5077561;28;20033;-77
2021/07/18 08:28:47;;;;;;;4.95;4.45;;;24.00;68.80;;;;;;5073636;28;20111;-77
2021/07/18 08:31:13;;;;;;;3.38;3.08;;;24.00;69.30;;;;;;5082530;28;20044;-78
2021/07/18 08:33:38;;;;;;;2.25;2.00;;;24.10;69.90;;;;;;5073124;28;20036;-77
2021/07/18 08:36:05;;;;;;;2.47;1.80;;;24.20;69.60;;;;;;5084846;28;20043;-77
2021/07/18 08:38:30;;;;;;;3.90;2.33;;;24.30;69.10;;;;;;5082004;28;20074;-77
2021/07/18 08:40:57;;;;;;;2.10;1.80;;;24.50;68.30;;;;;;5073341;28;20032;-76
2021/07/18 08:43:25;;;;;;;2.58;1.88;;;24.60;68.00;;;;;;5084635;28;20114;-76
2021/07/18 08:45:51;;;;;;;10.27;2.78;;;24.80;67.20;;;;;;5073542;28;20499;-76
2021/07/18 08:48:17;;;;;;;5.43;2.17;;;24.90;67.00;;;;;;5071568;28;20028;-76
2021/07/18 08:50:43;;;;;;;2.80;1.90;;;25.10;66.40;;;;;;5084676;28;20362;-76
2021/07/18 08:53:09;;;;;;;3.13;1.80;;;25.10;65.60;;;;;;5073108;28;20024;-76
2021/07/18 08:55:38;;;;;;;3.40;1.58;;;25.20;65.50;;;;;;5073012;28;20500;-76
2021/07/18 08:58:03;;;;;;;2.38;1.88;;;25.20;64.90;;;;;;5072752;28;20028;-76
2021/07/18 09:00:29;;;;;;;4.43;1.52;;;25.30;64.80;;;;;;5079950;28;20543;-76
2021/07/18 09:02:55;;;;;;;2.72;1.67;;;25.40;64.80;;;;;;5088860;28;20039;-75
2021/07/18 09:05:20;;;;;;;3.78;1.67;;;25.50;64.80;;;;;;5093042;28;20047;-76
2021/07/18 09:07:52;;;;;;;2.00;1.80;;;25.60;65.30;;;;;;5090162;28;20031;-76
2021/07/18 09:10:22;;;;;;;3.17;1.80;;;25.70;63.30;;;;;;5091411;28;20036;-75
2021/07/18 09:13:20;;;;;;;3.63;1.67;;;25.80;63.10;;;;;;5076288;28;20099;-76
2021/07/18 09:15:51;;;;;;;4.15;2.40;;;25.70;62.10;;;;;;5033366;28;20044;-75
2021/07/18 09:18:21;;;;;;;3.17;1.80;;;25.70;61.50;;;;;;5074030;28;20496;-76
2021/07/18 09:20:49;;;;;;;4.55;2.78;;;25.70;62.30;;;;;;5082813;28;20032;-76
2021/07/18 09:23:15;;;;;;;5.00;2.40;;;25.80;63.70;;;;;;5084312;28;20059;-76
2021/07/18 09:25:41;;;;;;;4.55;2.80;;;25.90;63.00;;;;;;5078650;28;20299;-77
2021/07/18 09:28:25;;;;;;;4.13;3.10;;;26.10;63.80;;;;;;5078389;28;20389;-76
2021/07/18 09:30:51;;;;;;;4.13;3.10;;;26.20;63.70;;;;;;5059307;28;20068;-76
2021/07/18 09:33:21;;;;;;;4.32;2.72;;;26.30;63.00;;;;;;5076255;28;20063;-76
2021/07/18 09:35:47;;;;;;;4.50;2.60;;;26.40;63.50;;;;;;5070272;28;20393;-76
2021/07/18 09:38:21;;;;;;;5.88;3.28;;;26.40;63.40;;;;;;5059446;28;20474;-76
2021/07/18 09:40:59;;;;;;;3.97;2.83;;;26.50;62.90;;;;;;5058009;28;20033;-77
2021/07/18 09:43:28;;;;;;;3.95;3.25;;;26.60;62.20;;;;;;5089041;28;20024;-76
2021/07/18 09:46:10;;;;;;;6.45;4.85;;;26.60;62.30;;;;;;5079301;28;20034;-76
2021/07/18 09:48:44;;;;;;;10.55;5.68;;;26.70;62.90;;;;;;5071932;28;20020;-76
2021/07/18 09:51:12;;;;;;;4.97;3.45;;;26.70;63.50;;;;;;5073681;28;20029;-76
2021/07/18 09:53:38;;;;;;;3.83;2.63;;;26.80;63.40;;;;;;5073179;28;20028;-76
2021/07/18 09:56:11;;;;;;;5.20;3.13;;;26.90;62.80;;;;;;5074010;28;20033;-75
2021/07/18 09:58:39;;;;;;;5.05;3.03;;;27.00;62.50;;;;;;5061995;28;20055;-77
2021/07/18 10:01:07;;;;;;;3.33;2.97;;;27.00;61.50;;;;;;5077364;28;20021;-77
2021/07/18 10:03:34;;;;;;;8.20;3.20;;;27.10;62.20;;;;;;5076663;28;20024;-76
2021/07/18 10:06:10;;;;;;;4.07;2.67;;;27.10;61.60;;;;;;5080217;28;20041;-76
2021/07/18 10:08:39;;;;;;;3.38;3.08;;;27.20;62.60;;;;;;5078256;28;20029;-76
2021/07/18 10:11:10;;;;;;;3.60;2.80;;;27.30;61.00;;;;;;5073930;28;20509;-76
2021/07/18 10:13:37;;;;;;;3.55;2.60;;;27.30;61.30;;;;;;5080956;28;20025;-76
2021/07/18 10:16:05;;;;;;;3.53;2.25;;;27.40;61.30;;;;;;5073336;28;20025;-76
2021/07/18 10:18:30;;;;;;;5.05;2.53;;;27.50;60.80;;;;;;5072529;28;20505;-76
2021/07/18 10:20:58;;;;;;;7.65;2.33;;;27.60;61.50;;;;;;5070759;28;20107;-76
2021/07/18 10:23:25;;;;;;;4.53;2.63;;;27.70;60.40;;;;;;5064009;28;20075;-76
2021/07/18 10:25:52;;;;;;;5.03;2.63;;;27.70;59.30;;;;;;5060484;28;20128;-76
2021/07/18 10:28:20;;;;;;;6.60;2.60;;;27.70;58.70;;;;;;5072601;28;20432;-76
2021/07/18 10:30:49;;;;;;;3.83;2.38;;;27.70;59.30;;;;;;5067576;28;20040;-77
2021/07/18 10:33:21;;;;;;;5.43;3.10;;;27.70;59.80;;;;;;5064771;28;20036;-76
2021/07/18 10:35:48;;;;;;;5.93;3.10;;;27.80;59.30;;;;;;5078809;28;20036;-76
2021/07/18 10:38:19;;;;;;;4.22;2.60;;;27.80;59.10;;;;;;5069771;28;20029;-77
2021/07/18 10:40:49;;;;;;;5.35;2.72;;;27.80;60.00;;;;;;5074781;28;20412;-76
2021/07/18 10:43:36;;;;;;;8.35;2.60;;;27.90;59.30;;;;;;5083687;28;20028;-77
2021/07/18 10:46:09;;;;;;;5.13;3.15;;;27.90;58.90;;;;;;5086238;28;20617;-78
2021/07/18 10:48:59;;;;;;;6.90;2.80;;;27.90;57.50;;;;;;5078308;28;20029;-76
2021/07/18 10:51:37;;;;;;;5.03;2.88;;;27.90;58.10;;;;;;5076758;28;20032;-76
2021/07/18 10:54:20;;;;;;;5.35;2.92;;;28.00;58.60;;;;;;5077162;28;20066;-76
2021/07/18 10:56:47;;;;;;;5.38;2.50;;;28.10;58.80;;;;;;5089965;28;20036;-77
2021/07/18 10:59:35;;;;;;;5.90;3.20;;;28.20;58.20;;;;;;5084382;28;20492;-77
2021/07/18 11:02:08;;;;;;;3.67;2.72;;;28.20;58.60;;;;;;5076385;28;20056;-76
2021/07/18 11:04:42;;;;;;;3.85;2.85;;;28.20;59.10;;;;;;5078750;28;20090;-76
2021/07/18 11:07:20;;;;;;;4.93;2.38;;;28.20;59.20;;;;;;5078914;28;20024;-76
2021/07/18 11:09:57;;;;;;;6.40;3.28;;;28.30;59.20;;;;;;5085837;28;20020;-77
2021/07/18 11:12:30;;;;;;;5.23;3.70;;;28.30;58.20;;;;;;5079548;28;20132;-77
2021/07/18 11:15:21;;;;;;;5.05;2.78;;;28.30;58.10;;;;;;5080628;28;20343;-77
2021/07/18 12:03:50;;;;;;;3.17;2.10;;;28.50;56.70;;;;;;5114364;27;20166;-79
2021/07/18 13:42:42;;;;;;;3.42;2.40;;;29.70;54.10;;;;;;5084698;27;20117;-78
2021/07/18 13:45:08;;;;;;;3.38;2.22;;;29.70;54.80;;;;;;5063003;28;20066;-81
2021/07/18 13:47:34;;;;;;;4.85;1.90;;;29.70;55.20;;;;;;5073032;28;20086;-81
2021/07/18 13:50:00;;;;;;;6.80;2.30;;;29.60;55.50;;;;;;5090278;28;20028;-81
2021/07/18 13:52:26;;;;;;;4.95;2.15;;;29.60;55.50;;;;;;5090723;28;20055;-82
2021/07/18 13:54:52;;;;;;;8.02;2.65;;;29.60;56.10;;;;;;5072758;28;20055;-81
2021/07/18 13:57:18;;;;;;;5.78;2.38;;;29.60;56.00;;;;;;5089382;28;20029;-81
2021/07/18 13:59:44;;;;;;;6.55;2.13;;;29.70;55.40;;;;;;5072624;28;20034;-81
2021/07/18 14:02:10;;;;;;;6.28;2.60;;;29.70;55.60;;;;;;5089605;28;20440;-81
2021/07/18 14:04:35;;;;;;;4.03;2.38;;;29.80;55.30;;;;;;5089378;28;20478;-81
2021/07/18 14:07:01;;;;;;;5.30;2.70;;;29.80;54.40;;;;;;5089219;28;20119;-81
2021/07/18 14:09:27;;;;;;;5.03;2.30;;;29.80;54.80;;;;;;5072237;28;20393;-81
2021/07/18 14:11:52;;;;;;;7.30;2.22;;;29.80;56.10;;;;;;5089344;28;20029;-81
2021/07/18 14:14:18;;;;;;;5.95;2.30;;;29.80;56.20;;;;;;5090173;28;20474;-82
2021/07/18 14:16:44;;;;;;;2.75;2.30;;;30.00;56.10;;;;;;5089137;28;20025;-81
2021/07/18 14:19:10;;;;;;;3.92;2.38;;;30.10;55.60;;;;;;5072208;28;20355;-81
2021/07/18 14:21:36;;;;;;;5.40;2.25;;;30.10;55.70;;;;;;5072223;28;20097;-82
2021/07/18 14:24:03;;;;;;;11.48;2.70;;;30.10;54.80;;;;;;5071997;28;20090;-81
2021/07/18 14:26:28;;;;;;;4.18;2.22;;;30.10;55.10;;;;;;5088898;28;20029;-81
2021/07/18 14:28:54;;;;;;;4.93;2.72;;;30.10;55.10;;;;;;5088744;28;20381;-81
2021/07/18 14:31:20;;;;;;;6.32;2.67;;;30.10;55.60;;;;;;5083940;28;20036;-81
2021/07/18 14:33:45;;;;;;;3.38;2.08;;;30.00;55.70;;;;;;5068691;28;20020;-81
2021/07/18 14:36:12;;;;;;;3.30;2.17;;;30.00;55.90;;;;;;5069692;28;20032;-81
2021/07/18 14:38:38;;;;;;;4.63;2.35;;;29.90;55.60;;;;;;5051539;28;20021;-82
2021/07/18 14:41:04;;;;;;;6.35;2.53;;;29.70;54.90;;;;;;5050920;28;20416;-81
2021/07/18 14:43:30;;;;;;;3.45;2.20;;;29.60;55.20;;;;;;5051459;28;20083;-81
2021/07/18 14:45:55;;;;;;;3.17;2.22;;;29.40;55.10;;;;;;5087802;28;20127;-81
2021/07/18 14:48:21;;;;;;;4.30;2.30;;;29.30;55.70;;;;;;5070900;28;20032;-82
2021/07/18 14:50:47;;;;;;;4.45;2.15;;;29.40;57.00;;;;;;5088174;28;20374;-81
2021/07/18 14:53:12;;;;;;;4.97;2.50;;;29.40;56.90;;;;;;5096305;28;20456;-81
2021/07/18 14:55:39;;;;;;;2.80;2.17;;;29.30;57.70;;;;;;5074961;28;20039;-82
2021/07/18 14:58:06;;;;;;;5.80;2.30;;;29.30;57.80;;;;;;5091570;28;20421;-81
2021/07/18 15:00:32;;;;;;;4.82;2.30;;;29.30;56.10;;;;;;5091448;28;20158;-81
2021/07/18 15:02:59;;;;;;;3.45;2.30;;;29.20;55.10;;;;;;5058063;28;20033;-81